sensor_id;sensor_type;location;lat;lon;timestamp;pressure;altitude;pressure_sealevel;temperature;humidity
60049;BME280;66154;45.544;6.756;2022-12-20T00:02:45;87750.78;;;1.61;61.92
60049;BME280;66154;45.544;6.756;2022-12-20T00:08:07;87742.69;;;1.64;60.83
60049;BME280;66154;45.544;6.756;2022-12-20T00:13:28;87726.72;;;1.63;60.85
60049;BME280;66154;45.544;6.756;2022-12-20T00:18:55;87717.59;;;1.62;60.54
60049;BME280;66154;45.544;6.756;2022-12-20T00:24:16;87695.59;;;1.68;60.55
60049;BME280;66154;45.544;6.756;2022-12-20T00:29:37;87692.50;;;1.66;60.69
60049;BME280;66154;45.544;6.756;2022-12-20T00:34:57;87691.09;;;1.86;59.73
60049;BME280;66154;45.544;6.756;2022-12-20T00:40:18;87690.69;;;1.56;61.59
60049;BME280;66154;45.544;6.756;2022-12-20T00:45:39;87684.41;;;1.69;61.16
60049;BME280;66154;45.544;6.756;2022-12-20T00:51:02;87677.53;;;1.59;60.88
60049;BME280;66154;45.544;6.756;2022-12-20T00:56:24;87670.28;;;1.78;61.47
60049;BME280;66154;45.544;6.756;2022-12-20T01:01:45;87680.88;;;1.65;60.49
60049;BME280;66154;45.544;6.756;2022-12-20T01:07:07;87690.72;;;1.61;60.71
60049;BME280;66154;45.544;6.756;2022-12-20T01:12:28;87704.13;;;1.57;61.44
60049;BME280;66154;45.544;6.756;2022-12-20T01:17:49;87708.22;;;1.63;61.27
60049;BME280;66154;45.544;6.756;2022-12-20T01:23:11;87695.97;;;1.50;62.69
60049;BME280;66154;45.544;6.756;2022-12-20T01:28:31;87698.78;;;1.53;62.36
60049;BME280;66154;45.544;6.756;2022-12-20T01:33:52;87707.06;;;1.38;63.00
60049;BME280;66154;45.544;6.756;2022-12-20T01:39:15;87696.00;;;1.55;62.66
60049;BME280;66154;45.544;6.756;2022-12-20T01:50:03;87707.09;;;1.49;62.06
60049;BME280;66154;45.544;6.756;2022-12-20T01:55:26;87719.75;;;1.43;61.14
60049;BME280;66154;45.544;6.756;2022-12-20T02:00:48;87711.63;;;1.41;62.09
60049;BME280;66154;45.544;6.756;2022-12-20T02:06:17;87716.41;;;1.38;62.55
60049;BME280;66154;45.544;6.756;2022-12-20T02:17:47;87713.81;;;1.27;63.25
60049;BME280;66154;45.544;6.756;2022-12-20T02:23:31;87701.03;;;1.12;63.07
60049;BME280;66154;45.544;6.756;2022-12-20T02:34:39;87684.16;;;1.23;63.40
60049;BME280;66154;45.544;6.756;2022-12-20T02:40:03;87684.41;;;1.26;63.10
60049;BME280;66154;45.544;6.756;2022-12-20T02:45:27;87670.00;;;1.27;63.51
60049;BME280;66154;45.544;6.756;2022-12-20T02:50:54;87658.06;;;1.22;63.20
60049;BME280;66154;45.544;6.756;2022-12-20T02:56:27;87652.31;;;1.37;62.78
60049;BME280;66154;45.544;6.756;2022-12-20T03:01:52;87645.44;;;1.33;63.33
60049;BME280;66154;45.544;6.756;2022-12-20T03:07:14;87643.88;;;1.26;64.18
60049;BME280;66154;45.544;6.756;2022-12-20T03:12:35;87634.53;;;1.27;63.96
60049;BME280;66154;45.544;6.756;2022-12-20T03:17:55;87635.78;;;1.24;64.31
60049;BME280;66154;45.544;6.756;2022-12-20T03:23:16;87636.03;;;1.28;64.01
60049;BME280;66154;45.544;6.756;2022-12-20T03:28:37;87621.09;;;1.26;63.68
60049;BME280;66154;45.544;6.756;2022-12-20T03:33:58;87617.56;;;1.33;63.60
60049;BME280;66154;45.544;6.756;2022-12-20T03:39:19;87613.38;;;1.06;64.87
60049;BME280;66154;45.544;6.756;2022-12-20T03:44:40;87625.41;;;1.26;64.31
60049;BME280;66154;45.544;6.756;2022-12-20T03:50:01;87634.81;;;1.31;64.04
60049;BME280;66154;45.544;6.756;2022-12-20T03:55:22;87643.66;;;1.33;64.30
60049;BME280;66154;45.544;6.756;2022-12-20T04:00:43;87636.56;;;1.30;63.29
60049;BME280;66154;45.544;6.756;2022-12-20T04:06:04;87626.63;;;1.18;64.66
60049;BME280;66154;45.544;6.756;2022-12-20T04:11:25;87627.97;;;1.36;63.25
60049;BME280;66154;45.544;6.756;2022-12-20T04:16:46;87626.50;;;1.40;63.83
60049;BME280;66154;45.544;6.756;2022-12-20T04:22:07;87622.47;;;1.50;62.15
60049;BME280;66154;45.544;6.756;2022-12-20T04:27:28;87631.53;;;1.35;63.16
60049;BME280;66154;45.544;6.756;2022-12-20T04:32:48;87621.81;;;1.22;62.99
60049;BME280;66154;45.544;6.756;2022-12-20T04:38:14;87624.22;;;1.44;63.32
60049;BME280;66154;45.544;6.756;2022-12-20T04:43:35;87625.44;;;1.36;63.21
60049;BME280;66154;45.544;6.756;2022-12-20T04:48:55;87633.00;;;1.26;63.39
60049;BME280;66154;45.544;6.756;2022-12-20T04:54:16;87636.47;;;1.15;63.65
60049;BME280;66154;45.544;6.756;2022-12-20T04:59:37;87646.03;;;1.07;63.95
60049;BME280;66154;45.544;6.756;2022-12-20T05:04:58;87635.97;;;1.13;63.31
60049;BME280;66154;45.544;6.756;2022-12-20T05:10:19;87633.31;;;0.97;63.48
60049;BME280;66154;45.544;6.756;2022-12-20T05:15:40;87617.69;;;1.11;63.19
60049;BME280;66154;45.544;6.756;2022-12-20T05:21:03;87619.22;;;1.06;63.50
60049;BME280;66154;45.544;6.756;2022-12-20T05:26:42;87617.72;;;1.16;64.16
60049;BME280;66154;45.544;6.756;2022-12-20T05:32:03;87628.84;;;1.10;63.86
60049;BME280;66154;45.544;6.756;2022-12-20T05:37:24;87624.84;;;1.19;64.55
60049;BME280;66154;45.544;6.756;2022-12-20T05:42:45;87627.63;;;1.17;63.66
60049;BME280;66154;45.544;6.756;2022-12-20T05:48:06;87627.84;;;1.16;64.03
60049;BME280;66154;45.544;6.756;2022-12-20T05:53:27;87626.84;;;1.17;64.24
60049;BME280;66154;45.544;6.756;2022-12-20T05:58:48;87602.53;;;1.16;63.50
60049;BME280;66154;45.544;6.756;2022-12-20T06:04:09;87599.06;;;1.27;63.26
60049;BME280;66154;45.544;6.756;2022-12-20T06:09:31;87600.56;;;1.23;64.02
60049;BME280;66154;45.544;6.756;2022-12-20T06:14:52;87600.09;;;1.31;64.50
60049;BME280;66154;45.544;6.756;2022-12-20T06:20:13;87602.28;;;1.70;61.58
60049;BME280;66154;45.544;6.756;2022-12-20T06:25:34;87612.38;;;1.12;61.77
60049;BME280;66154;45.544;6.756;2022-12-20T06:30:56;87615.78;;;1.33;63.29
60049;BME280;66154;45.544;6.756;2022-12-20T06:36:26;87614.56;;;1.36;63.15
60049;BME280;66154;45.544;6.756;2022-12-20T06:41:47;87612.78;;;1.36;63.76
60049;BME280;66154;45.544;6.756;2022-12-20T06:47:08;87611.28;;;1.40;63.81
60049;BME280;66154;45.544;6.756;2022-12-20T06:52:29;87600.34;;;1.35;63.93
60049;BME280;66154;45.544;6.756;2022-12-20T06:57:50;87602.69;;;1.47;64.57
60049;BME280;66154;45.544;6.756;2022-12-20T07:03:12;87602.22;;;1.50;64.59
60049;BME280;66154;45.544;6.756;2022-12-20T07:08:33;87599.69;;;1.55;63.81
60049;BME280;66154;45.544;6.756;2022-12-20T07:13:57;87611.31;;;1.51;63.92
60049;BME280;66154;45.544;6.756;2022-12-20T07:19:18;87622.41;;;1.34;63.88
60049;BME280;66154;45.544;6.756;2022-12-20T07:24:41;87616.03;;;1.26;64.71
60049;BME280;66154;45.544;6.756;2022-12-20T07:30:03;87603.69;;;1.40;64.56
60049;BME280;66154;45.544;6.756;2022-12-20T07:35:24;87608.78;;;1.51;64.52
60049;BME280;66154;45.544;6.756;2022-12-20T07:40:46;87608.84;;;1.61;64.17
60049;BME280;66154;45.544;6.756;2022-12-20T07:46:08;87592.41;;;1.63;64.00
60049;BME280;66154;45.544;6.756;2022-12-20T07:51:37;87600.00;;;1.69;63.79
60049;BME280;66154;45.544;6.756;2022-12-20T07:57:09;87587.34;;;1.69;63.73
60049;BME280;66154;45.544;6.756;2022-12-20T08:02:42;87601.00;;;1.68;62.67
60049;BME280;66154;45.544;6.756;2022-12-20T08:08:07;87629.13;;;1.66;61.81
60049;BME280;66154;45.544;6.756;2022-12-20T08:13:28;87619.47;;;1.53;63.80
60049;BME280;66154;45.544;6.756;2022-12-20T08:18:49;87607.63;;;1.69;62.80
60049;BME280;66154;45.544;6.756;2022-12-20T08:24:10;87619.81;;;1.82;63.43
60049;BME280;66154;45.544;6.756;2022-12-20T08:29:31;87636.56;;;1.78;63.53
60049;BME280;66154;45.544;6.756;2022-12-20T08:34:52;87632.81;;;2.01;62.91
60049;BME280;66154;45.544;6.756;2022-12-20T08:40:13;87617.94;;;2.30;63.36
60049;BME280;66154;45.544;6.756;2022-12-20T08:45:34;87628.84;;;2.36;63.31
60049;BME280;66154;45.544;6.756;2022-12-20T08:50:57;87637.22;;;2.31;63.70
60049;BME280;66154;45.544;6.756;2022-12-20T08:56:18;87647.09;;;2.33;63.52
60049;BME280;66154;45.544;6.756;2022-12-20T09:01:39;87630.34;;;2.27;63.93
60049;BME280;66154;45.544;6.756;2022-12-20T09:07:00;87630.16;;;2.64;63.79
60049;BME280;66154;45.544;6.756;2022-12-20T09:12:22;87630.94;;;2.96;62.60
60049;BME280;66154;45.544;6.756;2022-12-20T09:17:43;87638.56;;;2.90;62.01
60049;BME280;66154;45.544;6.756;2022-12-20T09:23:04;87635.75;;;3.02;61.45
60049;BME280;66154;45.544;6.756;2022-12-20T09:28:25;87618.00;;;2.92;62.37
60049;BME280;66154;45.544;6.756;2022-12-20T09:33:46;87606.50;;;3.36;62.18
60049;BME280;66154;45.544;6.756;2022-12-20T09:39:07;87597.09;;;3.41;60.47
60049;BME280;66154;45.544;6.756;2022-12-20T09:44:35;87600.41;;;3.37;61.44
60049;BME280;66154;45.544;6.756;2022-12-20T09:49:58;87598.38;;;3.34;60.16
60049;BME280;66154;45.544;6.756;2022-12-20T09:55:37;87599.91;;;3.40;61.41
60049;BME280;66154;45.544;6.756;2022-12-20T10:01:13;87597.16;;;3.00;63.83
60049;BME280;66154;45.544;6.756;2022-12-20T10:18:20;87577.97;;;3.59;59.81
60049;BME280;66154;45.544;6.756;2022-12-20T10:29:21;87546.81;;;3.88;60.46
60049;BME280;66154;45.544;6.756;2022-12-20T10:34:51;87535.59;;;3.94;59.05
60049;BME280;66154;45.544;6.756;2022-12-20T10:40:30;87534.59;;;3.95;57.47
60049;BME280;66154;45.544;6.756;2022-12-20T10:45:55;87513.28;;;4.26;56.01
60049;BME280;66154;45.544;6.756;2022-12-20T10:51:20;87494.84;;;4.44;56.83
60049;BME280;66154;45.544;6.756;2022-12-20T10:56:54;87479.00;;;4.52;56.70
60049;BME280;66154;45.544;6.756;2022-12-20T11:02:26;87485.56;;;4.59;58.30
60049;BME280;66154;45.544;6.756;2022-12-20T11:07:59;87480.59;;;4.43;57.57
60049;BME280;66154;45.544;6.756;2022-12-20T11:13:26;87480.09;;;4.41;56.56
60049;BME280;66154;45.544;6.756;2022-12-20T11:24:50;87466.78;;;4.49;57.64
60049;BME280;66154;45.544;6.756;2022-12-20T11:30:18;87466.75;;;4.84;55.54
60049;BME280;66154;45.544;6.756;2022-12-20T11:35:48;87448.13;;;4.88;54.95
60049;BME280;66154;45.544;6.756;2022-12-20T11:52:24;87424.66;;;5.11;55.58
60049;BME280;66154;45.544;6.756;2022-12-20T12:03:37;87422.41;;;5.52;53.29
60049;BME280;66154;45.544;6.756;2022-12-20T12:09:07;87414.00;;;5.52;54.64
60049;BME280;66154;45.544;6.756;2022-12-20T12:14:48;87402.22;;;5.56;55.05
60049;BME280;66154;45.544;6.756;2022-12-20T12:26:12;87396.63;;;5.54;54.10
60049;BME280;66154;45.544;6.756;2022-12-20T12:31:52;87391.94;;;5.61;52.53
60049;BME280;66154;45.544;6.756;2022-12-20T12:48:33;87363.78;;;6.04;53.16
60049;BME280;66154;45.544;6.756;2022-12-20T12:54:13;87358.31;;;6.30;51.77
60049;BME280;66154;45.544;6.756;2022-12-20T13:05:00;87348.00;;;6.35;52.70
60049;BME280;66154;45.544;6.756;2022-12-20T13:15:50;87343.78;;;6.44;53.99
60049;BME280;66154;45.544;6.756;2022-12-20T13:26:51;87313.56;;;7.30;51.01
60049;BME280;66154;45.544;6.756;2022-12-20T13:43:36;87323.34;;;6.58;52.96
60049;BME280;66154;45.544;6.756;2022-12-20T13:49:02;87318.13;;;6.77;53.09
60049;BME280;66154;45.544;6.756;2022-12-20T13:54:23;87313.91;;;6.12;53.05
60049;BME280;66154;45.544;6.756;2022-12-20T13:59:49;87319.94;;;6.63;52.58
60049;BME280;66154;45.544;6.756;2022-12-20T14:05:20;87315.69;;;6.72;52.96
60049;BME280;66154;45.544;6.756;2022-12-20T14:10:43;87331.19;;;6.48;51.56
60049;BME280;66154;45.544;6.756;2022-12-20T14:16:14;87332.59;;;6.07;54.25
60049;BME280;66154;45.544;6.756;2022-12-20T14:21:39;87329.88;;;6.04;54.60
60049;BME280;66154;45.544;6.756;2022-12-20T14:27:02;87339.72;;;6.10;55.10
60049;BME280;66154;45.544;6.756;2022-12-20T14:32:23;87340.22;;;6.12;55.32
60049;BME280;66154;45.544;6.756;2022-12-20T14:37:51;87339.13;;;6.00;56.53
60049;BME280;66154;45.544;6.756;2022-12-20T14:43:23;87332.44;;;5.85;56.22
60049;BME280;66154;45.544;6.756;2022-12-20T14:48:45;87330.06;;;5.88;56.25
60049;BME280;66154;45.544;6.756;2022-12-20T14:54:18;87309.53;;;5.98;56.71
60049;BME280;66154;45.544;6.756;2022-12-20T14:59:39;87313.88;;;5.98;56.67
60049;BME280;66154;45.544;6.756;2022-12-20T15:05:48;87303.22;;;5.58;57.05
60049;BME280;66154;45.544;6.756;2022-12-20T15:16:18;87295.22;;;5.45;56.13
60049;BME280;66154;45.544;6.756;2022-12-20T15:21:40;87291.19;;;5.06;58.55
60049;BME280;66154;45.544;6.756;2022-12-20T15:27:08;87282.44;;;5.32;58.53
60049;BME280;66154;45.544;6.756;2022-12-20T15:32:32;87280.50;;;5.04;58.71
60049;BME280;66154;45.544;6.756;2022-12-20T15:37:53;87274.16;;;5.21;59.26
60049;BME280;66154;45.544;6.756;2022-12-20T15:43:16;87280.34;;;4.77;59.63
60049;BME280;66154;45.544;6.756;2022-12-20T15:48:38;87273.53;;;4.91;58.70
60049;BME280;66154;45.544;6.756;2022-12-20T15:54:00;87258.06;;;4.44;59.83
60049;BME280;66154;45.544;6.756;2022-12-20T15:59:21;87240.47;;;4.67;59.19
60049;BME280;66154;45.544;6.756;2022-12-20T16:04:42;87231.53;;;4.69;58.31
60049;BME280;66154;45.544;6.756;2022-12-20T16:10:04;87240.31;;;4.58;59.35
60049;BME280;66154;45.544;6.756;2022-12-20T16:15:25;87234.25;;;4.54;59.38
60049;BME280;66154;45.544;6.756;2022-12-20T16:20:46;87242.13;;;4.77;60.20
60049;BME280;66154;45.544;6.756;2022-12-20T16:26:14;87240.56;;;4.81;57.24
60049;BME280;66154;45.544;6.756;2022-12-20T16:31:37;87240.19;;;4.68;60.03
60049;BME280;66154;45.544;6.756;2022-12-20T16:36:58;87236.19;;;4.62;59.70
60049;BME280;66154;45.544;6.756;2022-12-20T16:42:20;87234.06;;;4.50;60.50
60049;BME280;66154;45.544;6.756;2022-12-20T16:47:41;87222.91;;;4.65;60.03
60049;BME280;66154;45.544;6.756;2022-12-20T16:53:02;87216.66;;;4.58;60.11
60049;BME280;66154;45.544;6.756;2022-12-20T16:58:23;87216.44;;;4.54;60.05
60049;BME280;66154;45.544;6.756;2022-12-20T17:03:44;87215.19;;;4.51;60.14
60049;BME280;66154;45.544;6.756;2022-12-20T17:09:09;87228.66;;;4.52;60.55
60049;BME280;66154;45.544;6.756;2022-12-20T17:14:30;87218.53;;;4.28;60.16
60049;BME280;66154;45.544;6.756;2022-12-20T17:19:51;87209.22;;;4.18;60.84
60049;BME280;66154;45.544;6.756;2022-12-20T17:25:34;87198.59;;;4.35;60.91
60049;BME280;66154;45.544;6.756;2022-12-20T17:30:55;87212.00;;;4.41;60.79
60049;BME280;66154;45.544;6.756;2022-12-20T17:36:16;87211.81;;;4.13;61.00
60049;BME280;66154;45.544;6.756;2022-12-20T17:41:36;87216.31;;;4.21;60.51
60049;BME280;66154;45.544;6.756;2022-12-20T17:46:57;87212.84;;;4.12;60.86
60049;BME280;66154;45.544;6.756;2022-12-20T17:52:18;87220.09;;;4.24;61.09
60049;BME280;66154;45.544;6.756;2022-12-20T17:57:41;87215.03;;;4.24;61.21
60049;BME280;66154;45.544;6.756;2022-12-20T18:03:02;87223.03;;;4.12;61.31
60049;BME280;66154;45.544;6.756;2022-12-20T18:08:22;87237.28;;;4.13;60.87
60049;BME280;66154;45.544;6.756;2022-12-20T18:13:45;87224.16;;;4.01;61.73
60049;BME280;66154;45.544;6.756;2022-12-20T18:19:07;87224.06;;;4.11;60.95
60049;BME280;66154;45.544;6.756;2022-12-20T18:24:28;87233.41;;;4.15;59.68
60049;BME280;66154;45.544;6.756;2022-12-20T18:29:49;87233.75;;;4.09;60.48
60049;BME280;66154;45.544;6.756;2022-12-20T18:35:10;87243.44;;;4.07;61.39
60049;BME280;66154;45.544;6.756;2022-12-20T18:40:31;87249.47;;;4.16;60.78
60049;BME280;66154;45.544;6.756;2022-12-20T18:45:52;87254.75;;;3.95;61.45
60049;BME280;66154;45.544;6.756;2022-12-20T18:51:15;87260.13;;;4.18;61.75
60049;BME280;66154;45.544;6.756;2022-12-20T18:56:37;87248.38;;;4.22;61.51
60049;BME280;66154;45.544;6.756;2022-12-20T19:01:59;87247.19;;;4.14;60.17
60049;BME280;66154;45.544;6.756;2022-12-20T19:07:20;87247.38;;;4.18;61.47
60049;BME280;66154;45.544;6.756;2022-12-20T19:12:41;87242.09;;;4.14;61.69
60049;BME280;66154;45.544;6.756;2022-12-20T19:18:02;87235.69;;;4.17;60.84
60049;BME280;66154;45.544;6.756;2022-12-20T19:23:23;87227.66;;;3.80;62.84
60049;BME280;66154;45.544;6.756;2022-12-20T19:28:44;87218.53;;;4.04;62.29
60049;BME280;66154;45.544;6.756;2022-12-20T19:34:09;87226.16;;;4.04;62.31
60049;BME280;66154;45.544;6.756;2022-12-20T19:39:30;87216.44;;;4.11;61.60
60049;BME280;66154;45.544;6.756;2022-12-20T19:44:51;87223.56;;;4.09;62.22
60049;BME280;66154;45.544;6.756;2022-12-20T19:50:12;87216.41;;;3.87;62.35
60049;BME280;66154;45.544;6.756;2022-12-20T19:55:34;87227.56;;;3.61;63.59
60049;BME280;66154;45.544;6.756;2022-12-20T20:00:55;87223.69;;;3.98;63.08
60049;BME280;66154;45.544;6.756;2022-12-20T20:06:17;87225.38;;;3.79;63.46
60049;BME280;66154;45.544;6.756;2022-12-20T20:11:38;87225.63;;;3.83;63.36
60049;BME280;66154;45.544;6.756;2022-12-20T20:16:59;87226.66;;;4.06;62.25
60049;BME280;66154;45.544;6.756;2022-12-20T20:22:20;87211.16;;;4.02;61.98
60049;BME280;66154;45.544;6.756;2022-12-20T20:27:41;87214.75;;;4.25;60.58
60049;BME280;66154;45.544;6.756;2022-12-20T20:33:02;87208.56;;;4.07;61.01
60049;BME280;66154;45.544;6.756;2022-12-20T20:38:23;87229.75;;;4.27;59.25
60049;BME280;66154;45.544;6.756;2022-12-20T20:43:46;87226.66;;;4.06;59.75
60049;BME280;66154;45.544;6.756;2022-12-20T20:49:07;87224.09;;;4.06;59.90
60049;BME280;66154;45.544;6.756;2022-12-20T20:54:27;87234.88;;;3.97;61.01
60049;BME280;66154;45.544;6.756;2022-12-20T20:59:48;87250.34;;;4.01;60.95
60049;BME280;66154;45.544;6.756;2022-12-20T21:05:09;87247.69;;;3.58;60.58
60049;BME280;66154;45.544;6.756;2022-12-20T21:10:30;87235.94;;;3.91;61.02
60049;BME280;66154;45.544;6.756;2022-12-20T21:15:51;87228.31;;;3.91;60.50
60049;BME280;66154;45.544;6.756;2022-12-20T21:21:13;87212.03;;;4.16;58.51
60049;BME280;66154;45.544;6.756;2022-12-20T21:26:34;87230.50;;;4.27;58.05
60049;BME280;66154;45.544;6.756;2022-12-20T21:31:55;87223.56;;;4.09;59.90
60049;BME280;66154;45.544;6.756;2022-12-20T21:37:16;87232.38;;;3.92;61.74
60049;BME280;66154;45.544;6.756;2022-12-20T21:42:37;87245.00;;;4.03;60.31
60049;BME280;66154;45.544;6.756;2022-12-20T21:47:58;87243.09;;;3.89;62.44
60049;BME280;66154;45.544;6.756;2022-12-20T21:53:19;87225.84;;;3.86;62.60
60049;BME280;66154;45.544;6.756;2022-12-20T21:58:40;87244.72;;;4.04;61.87
60049;BME280;66154;45.544;6.756;2022-12-20T22:04:03;87257.25;;;4.01;62.36
60049;BME280;66154;45.544;6.756;2022-12-20T22:09:24;87237.28;;;3.84;63.70
60049;BME280;66154;45.544;6.756;2022-12-20T22:14:45;87232.78;;;4.05;62.23
60049;BME280;66154;45.544;6.756;2022-12-20T22:20:06;87242.97;;;4.05;62.79
60049;BME280;66154;45.544;6.756;2022-12-20T22:25:27;87259.38;;;3.88;63.59
60049;BME280;66154;45.544;6.756;2022-12-20T22:30:48;87248.59;;;4.02;62.76
60049;BME280;66154;45.544;6.756;2022-12-20T22:36:10;87264.97;;;3.90;63.97
60049;BME280;66154;45.544;6.756;2022-12-20T22:41:32;87273.16;;;3.87;64.21
60049;BME280;66154;45.544;6.756;2022-12-20T22:46:56;87276.66;;;3.91;64.48
60049;BME280;66154;45.544;6.756;2022-12-20T22:52:16;87276.72;;;3.86;64.63
60049;BME280;66154;45.544;6.756;2022-12-20T22:57:37;87268.25;;;3.61;64.52
60049;BME280;66154;45.544;6.756;2022-12-20T23:02:58;87259.50;;;4.02;62.57
60049;BME280;66154;45.544;6.756;2022-12-20T23:08:19;87289.13;;;4.17;62.10
60049;BME280;66154;45.544;6.756;2022-12-20T23:13:41;87300.59;;;3.90;63.21
60049;BME280;66154;45.544;6.756;2022-12-20T23:19:21;87298.06;;;3.90;62.00
60049;BME280;66154;45.544;6.756;2022-12-20T23:24:42;87288.47;;;3.77;63.49
60049;BME280;66154;45.544;6.756;2022-12-20T23:30:04;87288.41;;;3.87;63.63
60049;BME280;66154;45.544;6.756;2022-12-20T23:35:26;87285.53;;;3.94;63.69
60049;BME280;66154;45.544;6.756;2022-12-20T23:40:47;87284.81;;;3.88;64.32
60049;BME280;66154;45.544;6.756;2022-12-20T23:46:11;87298.06;;;3.85;63.72
60049;BME280;66154;45.544;6.756;2022-12-20T23:51:32;87274.22;;;3.12;66.51
60049;BME280;66154;45.544;6.756;2022-12-20T23:56:54;87251.91;;;3.73;65.88
